Time;durP1;ratioP1;P1;durP2;ratioP2;P2;SDS_P1;SDS_P2;PMS_P1;PMS_P2;Temp;Humidity;BMP_temperature;BMP_pressure;BME280_temperature;BME280_humidity;BME280_pressure;Samples;Min_cycle;Max_cycle;Signal;HPM_P1;HPM_P2
2023/11/09 00:01:16;;;;;;;1.80;1.70;;;;;;;-147.86;100.00;49454.06;105971;1255;61255;-49
2023/11/09 00:03:43;;;;;;;2.30;2.10;;;;;;;-147.86;100.00;49450.14;106030;1251;60799;-46
2023/11/09 00:06:10;;;;;;;2.30;1.90;;;;;;;-147.86;100.00;49442.68;105970;1254;73767;-47
2023/11/09 00:08:42;;;;;;;3.30;1.70;;;;;;;-147.86;100.00;49407.39;106016;1251;64803;-46
2023/11/09 00:11:09;;;;;;;2.00;1.90;;;;;;;-147.86;100.00;49398.76;106006;1251;72500;-49
2023/11/09 00:13:36;;;;;;;3.00;2.10;;;;;;;-147.86;100.00;49398.37;105995;1251;60385;-46
2023/11/09 00:16:04;;;;;;;13.00;2.10;;;;;;;-147.86;100.00;49389.35;105942;1250;60428;-50
2023/11/09 00:18:31;;;;;;;1.80;1.70;;;;;;;-147.86;100.00;49393.27;105964;1251;73778;-48
2023/11/09 00:21:02;;;;;;;3.30;2.20;;;;;;;-147.86;100.00;49388.17;106018;1254;65348;-47
2023/11/09 00:23:31;;;;;;;2.20;2.00;;;;;;;-147.86;100.00;49385.81;105986;1254;72711;-48
2023/11/09 00:26:00;;;;;;;1.70;1.60;;;;;;;-147.86;100.00;49376.80;106003;1251;60890;-46
2023/11/09 00:28:27;;;;;;;2.20;2.00;;;;;;;-147.86;100.00;49381.50;105991;1256;60443;-49
2023/11/09 00:30:55;;;;;;;1.90;1.70;;;;;;;-147.86;100.00;49346.21;105924;1251;73866;-48
2023/11/09 00:33:22;;;;;;;1.70;1.60;;;;;;;-147.86;100.00;49341.50;105875;1254;64602;-52
2023/11/09 00:35:49;;;;;;;2.50;1.80;;;;;;;-147.86;100.00;49328.55;105839;1251;72595;-49
2023/11/09 00:38:16;;;;;;;1.90;1.80;;;;;;;-147.86;100.00;49304.63;105739;1256;61765;-48
2023/11/09 00:40:43;;;;;;;4.00;2.40;;;;;;;-147.86;100.00;49306.20;105887;1251;60533;-50
2023/11/09 00:43:11;;;;;;;3.30;2.20;;;;;;;-147.86;100.00;49303.85;105996;1253;73809;-47
2023/11/09 00:45:38;;;;;;;1.90;1.80;;;;;;;-147.86;100.00;49292.87;106048;1254;64842;-48
2023/11/09 00:48:05;;;;;;;2.30;2.10;;;;;;;-147.86;100.00;49268.55;106016;1254;72480;-48
2023/11/09 00:50:32;;;;;;;2.60;2.40;;;;;;;-147.86;100.00;49285.80;105936;1256;60565;-52
2023/11/09 00:52:59;;;;;;;2.40;2.20;;;;;;;-147.86;100.00;49291.30;106010;1251;60395;-47
2023/11/09 00:55:26;;;;;;;7.30;2.80;;;;;;;-147.86;100.00;49284.64;105915;1251;73681;-46
2023/11/09 00:57:53;;;;;;;2.70;2.50;;;;;;;-147.86;100.00;49292.87;105988;1254;65476;-48
2023/11/09 01:00:20;;;;;;;5.70;3.00;;;;;;;-147.86;100.00;49301.49;106000;1252;71197;-46
2023/11/09 01:02:49;;;;;;;5.10;2.90;;;;;;;-147.86;100.00;49306.99;105985;1254;60660;-48
2023/11/09 01:05:16;;;;;;;3.10;2.90;;;;;;;-147.86;100.00;49327.77;105976;1251;60440;-46
2023/11/09 01:07:44;;;;;;;3.20;3.00;;;;;;;-147.86;100.00;49346.21;105879;1256;73839;-47
2023/11/09 01:10:11;;;;;;;4.00;3.60;;;;;;;-147.86;100.00;49365.81;105902;1251;64824;-49
2023/11/09 01:12:38;;;;;;;6.20;3.60;;;;;;;-147.86;100.00;49397.98;105884;1254;72659;-51
2023/11/09 01:15:06;;;;;;;5.80;3.30;;;;;;;-147.86;100.00;49425.82;105891;1256;61919;-48
2023/11/09 01:17:36;;;;;;;4.00;3.70;;;;;;;-147.86;100.00;49492.89;105908;1257;60492;-48
2023/11/09 01:20:04;;;;;;;4.00;3.60;;;;;;;-147.86;100.00;49539.55;105998;1251;72355;-46
2023/11/09 01:22:34;;;;;;;4.90;3.50;;;;;;;-147.86;100.00;49599.18;105954;1256;64067;-50
2023/11/09 01:25:01;;;;;;;4.10;3.50;;;;;;;-147.86;100.00;49661.93;105954;1257;72037;-47
2023/11/09 01:27:28;;;;;;;4.10;3.60;;;;;;;-147.86;100.00;49727.82;106018;1251;61898;-47
2023/11/09 01:29:55;;;;;;;4.50;4.10;;;;;;;-147.86;100.00;49774.11;105978;1251;60443;-48
2023/11/09 01:32:22;;;;;;;4.40;4.00;;;;;;;-147.86;100.00;49809.80;105946;1255;73744;-47
2023/11/09 01:34:49;;;;;;;5.00;3.80;;;;;;;-147.86;100.00;49816.86;105908;1251;65387;-48
2023/11/09 01:37:16;;;;;;;3.50;3.10;;;;;;;-147.86;100.00;49832.15;105950;1254;72668;-47
2023/11/09 01:39:44;;;;;;;4.80;3.40;;;;;;;-147.86;100.00;49848.63;105890;1256;62017;-48
2023/11/09 01:42:12;;;;;;;4.40;4.00;;;;;;;-147.86;100.00;49838.43;105994;1251;60530;-48
2023/11/09 01:44:39;;;;;;;4.30;3.90;;;;;;;-147.86;100.00;49845.10;106079;1255;73782;-47
2023/11/09 01:47:06;;;;;;;6.90;4.30;;;;;;;-147.86;100.00;49807.05;105966;1254;65500;-46
2023/11/09 01:49:35;;;;;;;4.30;3.80;;;;;;;-147.86;100.00;49802.73;105937;1251;71523;-48
2023/11/09 01:52:03;;;;;;;4.70;3.80;;;;;;;-147.86;100.00;49763.91;105840;1251;61973;-48
2023/11/09 01:54:31;;;;;;;4.10;3.80;;;;;;;-147.86;100.00;49758.03;105955;1251;61130;-49
2023/11/09 01:56:57;;;;;;;4.00;3.70;;;;;;;-147.86;100.00;49749.39;105776;1255;73851;-49
2023/11/09 01:59:25;;;;;;;4.10;3.70;;;;;;;-147.86;100.00;49727.43;105916;1251;64689;-46
2023/11/09 02:01:52;;;;;;;4.20;3.80;;;;;;;-147.86;100.00;49725.47;105792;1259;72663;-47
2023/11/09 02:04:19;;;;;;;3.90;3.40;;;;;;;-147.86;100.00;49726.25;105957;1256;61916;-48
2023/11/09 02:06:46;;;;;;;3.80;3.40;;;;;;;-147.86;100.00;49688.60;105926;1251;60601;-47
2023/11/09 02:09:13;;;;;;;7.70;3.20;;;;;;;-147.86;100.00;49692.13;105696;1258;73833;-48
2023/11/09 02:11:40;;;;;;;3.30;3.10;;;;;;;-147.86;100.00;49667.42;105977;1255;64626;-49
2023/11/09 02:14:07;;;;;;;4.30;2.90;;;;;;;-147.86;100.00;49624.28;105963;1256;72582;-48
2023/11/09 02:16:34;;;;;;;4.40;3.20;;;;;;;-147.86;100.00;49618.78;105920;1251;61921;-46
2023/11/09 02:19:02;;;;;;;2.90;2.60;;;;;;;-147.86;100.00;49594.86;105993;1251;60478;-46
2023/11/09 02:21:29;;;;;;;2.50;2.30;;;;;;;-147.86;100.00;49590.94;105693;1256;73743;-49
2023/11/09 02:23:56;;;;;;;4.70;3.10;;;;;;;-147.86;100.00;49574.86;105498;1251;64707;-49
2023/11/09 02:26:23;;;;;;;5.70;2.90;;;;;;;-147.86;100.00;49567.80;105865;1251;72598;-51
2023/11/09 02:28:52;;;;;;;3.50;3.30;;;;;;;-147.86;100.00;49559.95;105745;1254;61685;-52
2023/11/09 02:31:19;;;;;;;2.90;2.60;;;;;;;-147.86;100.00;49570.54;105869;1253;60335;-49
2023/11/09 02:33:46;;;;;;;2.90;2.50;;;;;;;-147.86;100.00;49577.99;105913;1251;73640;-48
2023/11/09 02:36:13;;;;;;;2.80;2.60;;;;;;;-147.86;100.00;49578.39;105955;1255;65480;-47
2023/11/09 02:38:40;;;;;;;3.20;2.40;;;;;;;-147.86;100.00;49576.04;105905;1251;72484;-48
2023/11/09 02:41:08;;;;;;;4.00;3.20;;;;;;;-147.86;100.00;49587.02;105897;1251;61885;-50
2023/11/09 02:43:40;;;;;;;2.70;2.20;;;;;;;-147.86;100.00;49581.92;105746;1251;283984;-47
2023/11/09 02:49:33;;;;;;;3.00;2.80;;;;;;;-147.86;100.00;49456.43;103141;1282;616911;-46
2023/11/09 02:52:00;;;;;;;2.80;2.60;;;;;;;-147.86;100.00;49637.22;105119;1268;59259;-45
2023/11/09 02:54:27;;;;;;;3.70;2.90;;;;;;;-147.86;100.00;49623.10;105183;1263;60265;-45
2023/11/09 02:56:55;;;;;;;3.50;2.70;;;;;;;-147.86;100.00;49642.32;105191;1263;72306;-46
2023/11/09 02:59:22;;;;;;;3.80;2.80;;;;;;;-147.86;100.00;49653.30;104858;1268;65440;-48
2023/11/09 03:01:48;;;;;;;2.50;2.40;;;;;;;-147.86;100.00;49659.58;105032;1263;255201;-50
2023/11/09 03:04:15;;;;;;;3.00;2.80;;;;;;;-147.86;100.00;49653.70;105201;1265;61860;-48
2023/11/09 03:06:43;;;;;;;3.20;3.00;;;;;;;-147.86;100.00;49679.58;105228;1261;60279;-46
2023/11/09 03:09:12;;;;;;;6.80;3.00;;;;;;;-147.86;100.00;49674.87;105197;1267;72092;-48
2023/11/09 03:11:39;;;;;;;3.60;3.30;;;;;;;-147.86;100.00;49668.60;105261;1260;65299;-47
2023/11/09 03:14:06;;;;;;;3.30;3.00;;;;;;;-147.86;100.00;49667.42;105180;1261;72626;-47
2023/11/09 03:16:33;;;;;;;4.40;2.70;;;;;;;-147.86;100.00;49679.18;105207;1265;60934;-45
2023/11/09 03:19:00;;;;;;;3.70;3.00;;;;;;;-147.86;100.00;49674.09;105209;1261;59603;-49
2023/11/09 03:21:27;;;;;;;3.40;2.70;;;;;;;-147.86;100.00;49664.29;105215;1265;73013;-45
2023/11/09 03:23:54;;;;;;;2.90;2.70;;;;;;;-147.86;100.00;49639.96;105315;1264;65483;-44
2023/11/09 03:26:21;;;;;;;3.50;3.20;;;;;;;-147.86;100.00;49677.23;105581;1257;72526;-45
2023/11/09 03:28:48;;;;;;;3.40;3.00;;;;;;;-147.86;100.00;49647.41;105575;1262;61981;-47
2023/11/09 03:31:15;;;;;;;3.30;2.90;;;;;;;-147.86;100.00;49666.64;105547;1257;59608;-45
2023/11/09 03:33:42;;;;;;;3.60;3.30;;;;;;;-147.86;100.00;49634.87;105579;1257;72962;-47
2023/11/09 03:36:09;;;;;;;3.60;3.30;;;;;;;-147.86;100.00;49645.85;105566;1260;65422;-49
2023/11/09 03:38:36;;;;;;;5.60;3.80;;;;;;;-147.86;100.00;49631.34;105538;1260;72549;-46
2023/11/09 03:41:04;;;;;;;6.80;3.10;;;;;;;-147.86;100.00;49634.08;105572;1262;61934;-48
2023/11/09 03:43:31;;;;;;;4.20;3.80;;;;;;;-147.86;100.00;49620.74;105336;1259;60143;-46
2023/11/09 03:45:59;;;;;;;3.70;3.40;;;;;;;-147.86;100.00;49627.02;105369;1259;74189;-45
2023/11/09 03:48:26;;;;;;;6.90;3.40;;;;;;;-147.86;100.00;49620.75;105228;1265;65319;-48
2023/11/09 03:50:53;;;;;;;6.40;3.50;;;;;;;-147.86;100.00;49621.14;105321;1259;72693;-47
2023/11/09 03:53:20;;;;;;;7.40;4.20;;;;;;;-147.86;100.00;49628.20;105320;1264;61965;-46
2023/11/09 03:55:47;;;;;;;5.50;3.70;;;;;;;-147.86;100.00;49603.09;105301;1260;59659;-47
2023/11/09 03:58:14;;;;;;;5.50;3.90;;;;;;;-147.86;100.00;49604.66;105383;1260;72859;-48
2023/11/09 04:00:40;;;;;;;5.40;3.90;;;;;;;-147.86;100.00;49608.98;105305;1264;64617;-48
2023/11/09 04:03:07;;;;;;;4.30;4.00;;;;;;;-147.86;100.00;49621.92;105301;1263;72526;-49
2023/11/09 04:05:34;;;;;;;5.00;4.10;;;;;;;-147.86;100.00;49590.54;105290;1263;61933;-47
2023/11/09 04:08:01;;;;;;;4.40;4.10;;;;;;;-147.86;100.00;49590.54;105278;1260;60167;-48
2023/11/09 04:10:28;;;;;;;4.60;4.00;;;;;;;-147.86;100.00;49559.95;105299;1259;73096;-49
2023/11/09 04:12:56;;;;;;;4.40;4.00;;;;;;;-147.86;100.00;49565.05;105233;1263;65303;-48
2023/11/09 04:15:23;;;;;;;4.50;4.00;;;;;;;-147.86;100.00;49542.70;105280;1260;72613;-44
2023/11/09 04:17:49;;;;;;;4.30;3.90;;;;;;;-147.86;100.00;49519.55;105262;1264;60877;-48
2023/11/09 04:20:17;;;;;;;4.50;4.00;;;;;;;-147.86;100.00;49513.28;105276;1260;59677;-48
2023/11/09 04:22:44;;;;;;;5.50;4.20;;;;;;;-147.86;100.00;49498.77;105268;1259;73008;-47
2023/11/09 04:25:11;;;;;;;6.50;4.20;;;;;;;-147.86;100.00;49477.20;105293;1264;65234;-47
2023/11/09 04:27:38;;;;;;;6.30;4.20;;;;;;;-147.86;100.00;49482.69;105242;1260;72639;-45
2023/11/09 04:30:09;;;;;;;5.50;4.90;;;;;;;-147.86;100.00;49448.18;105335;1264;60742;-45
2023/11/09 04:32:36;;;;;;;4.40;4.00;;;;;;;-147.86;100.00;49454.05;105292;1260;60172;-45
2023/11/09 04:35:04;;;;;;;5.70;4.60;;;;;;;-147.86;100.00;49469.36;105249;1260;73007;-48
2023/11/09 04:37:31;;;;;;;6.00;4.10;;;;;;;-147.86;100.00;49441.90;105339;1264;65326;-48
2023/11/09 04:39:58;;;;;;;4.90;4.10;;;;;;;-147.86;100.00;49398.76;105279;1260;72486;-45
2023/11/09 04:42:29;;;;;;;5.00;4.10;;;;;;;-147.86;100.00;49410.52;105302;1264;62075;-48
2023/11/09 04:44:56;;;;;;;5.70;4.30;;;;;;;-147.86;100.00;49406.21;105304;1259;60373;-47
2023/11/09 04:47:25;;;;;;;4.20;3.60;;;;;;;-147.86;100.00;49405.43;105313;1260;73148;-49
2023/11/09 04:49:58;;;;;;;3.80;3.50;;;;;;;-147.86;100.00;49401.50;105278;1259;63800;-45
2023/11/09 04:52:29;;;;;;;4.00;3.70;;;;;;;-147.86;100.00;49396.01;105250;1259;72676;-46
2023/11/09 04:55:07;;;;;;;5.50;4.30;;;;;;;-147.86;100.00;49384.25;105280;1265;61933;-48
2023/11/09 05:08:37;;;;;;;4.60;4.10;;;;;;;-147.86;100.00;49370.13;105596;1256;61790;-46
2023/11/09 05:11:05;;;;;;;6.70;4.40;;;;;;;-147.86;100.00;49375.62;105710;1256;60192;-46
2023/11/09 05:13:32;;;;;;;5.10;4.60;;;;;;;-147.86;100.00;49388.96;105727;1256;73010;-50
2023/11/09 05:15:58;;;;;;;4.10;3.70;;;;;;;-147.86;100.00;49380.32;105626;1259;65496;-47
2023/11/09 05:18:26;;;;;;;4.90;4.20;;;;;;;-147.86;100.00;49365.03;105599;1257;72618;-45
2023/11/09 05:20:53;;;;;;;4.80;3.70;;;;;;;-147.86;100.00;49358.76;105604;1256;62003;-47
2023/11/09 05:23:20;;;;;;;4.70;3.40;;;;;;;-147.86;100.00;49345.81;105574;1256;60059;-46
2023/11/09 05:25:47;;;;;;;4.30;3.90;;;;;;;-147.86;100.00;49355.61;105609;1258;72990;-46
2023/11/09 05:28:14;;;;;;;4.60;3.50;;;;;;;-147.86;100.00;49319.93;105551;1261;65247;-49
2023/11/09 05:30:41;;;;;;;6.60;3.70;;;;;;;-147.86;100.00;49350.91;105637;1256;72787;-46
2023/11/09 05:33:08;;;;;;;3.40;3.20;;;;;;;-147.86;100.00;49331.70;105609;1259;61934;-46
2023/11/09 05:35:35;;;;;;;5.60;3.90;;;;;;;-147.86;100.00;49342.28;105682;1255;60153;-48
2023/11/09 05:38:03;;;;;;;4.60;3.70;;;;;;;-147.86;100.00;49341.50;105639;1257;72829;-48
2023/11/09 05:40:30;;;;;;;6.00;3.40;;;;;;;-147.86;100.00;49349.34;105674;1259;65524;-48
2023/11/09 05:42:59;;;;;;;4.10;3.20;;;;;;;-147.86;100.00;49347.38;105622;1257;72455;-47
2023/11/09 05:45:26;;;;;;;4.60;3.30;;;;;;;-147.86;100.00;49360.32;105675;1259;61972;-45
2023/11/09 05:47:53;;;;;;;3.80;3.50;;;;;;;-147.86;100.00;49368.56;105612;1257;60412;-48
2023/11/09 05:50:20;;;;;;;6.20;3.70;;;;;;;-147.86;100.00;49363.07;105582;1259;73027;-47
2023/11/09 05:52:48;;;;;;;5.50;3.20;;;;;;;-147.86;100.00;49371.30;105597;1259;65463;-45
2023/11/09 05:55:15;;;;;;;5.00;3.10;;;;;;;-147.86;100.00;49374.45;105621;1257;72690;-47
2023/11/09 05:57:42;;;;;;;3.40;3.10;;;;;;;-147.86;100.00;49393.66;105646;1259;62011;-47
2023/11/09 06:00:10;;;;;;;3.50;3.20;;;;;;;-147.86;100.00;49394.45;105666;1257;60053;-48
2023/11/09 06:02:37;;;;;;;3.50;2.90;;;;;;;-147.86;100.00;49402.68;105707;1257;73076;-47
2023/11/09 06:05:05;;;;;;;3.30;3.10;;;;;;;-147.86;100.00;49396.01;105634;1259;64493;-45
2023/11/09 06:07:35;;;;;;;6.70;3.10;;;;;;;-147.86;100.00;49409.35;105667;1257;72630;-50
2023/11/09 06:10:03;;;;;;;3.90;2.90;;;;;;;-147.86;100.00;49415.62;105630;1259;60508;-49
2023/11/09 06:12:31;;;;;;;5.00;3.20;;;;;;;-147.86;100.00;49421.51;105561;1256;60190;-47
2023/11/09 06:14:57;;;;;;;7.80;3.90;;;;;;;-147.86;100.00;49443.86;105615;1259;73008;-49
2023/11/09 06:17:25;;;;;;;6.60;3.50;;;;;;;-147.86;100.00;49468.96;105419;1259;65488;-46
2023/11/09 06:19:52;;;;;;;5.70;3.00;;;;;;;-147.86;100.00;49464.26;105408;1259;72735;-45
2023/11/09 06:22:20;;;;;;;6.20;3.30;;;;;;;-147.86;100.00;49491.71;105435;1256;61832;-49
2023/11/09 06:24:47;;;;;;;5.10;3.70;;;;;;;-147.86;100.00;49483.48;105651;1255;60171;-49
2023/11/09 06:27:16;;;;;;;7.10;3.00;;;;;;;-147.86;100.00;49478.38;105548;1256;72145;-46
2023/11/09 06:29:42;;;;;;;4.70;3.30;;;;;;;-147.86;100.00;49466.21;105636;1259;65213;-47
2023/11/09 06:32:09;;;;;;;4.30;2.90;;;;;;;-147.86;100.00;49457.59;105643;1256;72630;-47
2023/11/09 06:34:36;;;;;;;6.40;3.20;;;;;;;-147.86;100.00;49447.00;105622;1259;61916;-46
2023/11/09 06:37:03;;;;;;;7.80;3.20;;;;;;;-147.86;100.00;49440.73;105612;1257;60293;-45
2023/11/09 06:39:30;;;;;;;7.00;2.70;;;;;;;-147.86;100.00;49421.11;105650;1258;73073;-47
2023/11/09 06:41:58;;;;;;;7.40;3.20;;;;;;;-147.86;100.00;49397.98;105657;1259;65414;-51
2023/11/09 06:44:25;;;;;;;5.00;3.10;;;;;;;-147.86;100.00;49399.15;105652;1257;72635;-50
2023/11/09 06:46:52;;;;;;;5.80;3.20;;;;;;;-147.86;100.00;49390.91;105635;1259;59616;-48
2023/11/09 06:49:18;;;;;;;2.90;2.70;;;;;;;-147.86;100.00;49399.15;105723;1256;60355;-47
2023/11/09 06:51:45;;;;;;;4.80;3.20;;;;;;;-147.86;100.00;49397.97;105652;1259;73090;-50
2023/11/09 06:54:12;;;;;;;4.40;3.20;;;;;;;-147.86;100.00;49378.36;105568;1259;65468;-47
2023/11/09 06:56:40;;;;;;;3.10;2.90;;;;;;;-147.86;100.00;49356.80;105297;1259;72607;-48
2023/11/09 06:59:08;;;;;;;4.20;3.10;;;;;;;-147.86;100.00;49323.85;105391;1259;61835;-46
2023/11/09 07:01:35;;;;;;;3.60;3.30;;;;;;;-147.86;100.00;49306.21;105547;1257;60533;-50
2023/11/09 07:04:02;;;;;;;2.70;2.50;;;;;;;-147.86;100.00;49294.83;105659;1259;73776;-50
2023/11/09 07:06:29;;;;;;;7.10;3.20;;;;;;;-147.86;100.00;49280.71;105647;1256;64646;-50
2023/11/09 07:08:56;;;;;;;3.50;3.10;;;;;;;-147.86;100.00;49265.41;105656;1257;72518;-49
2023/11/09 07:11:23;;;;;;;5.70;3.00;;;;;;;-147.86;100.00;49253.65;105592;1259;60456;-52
2023/11/09 07:13:50;;;;;;;2.90;2.70;;;;;;;-147.86;100.00;49199.53;105614;1259;60445;-49
2023/11/09 07:16:18;;;;;;;7.10;3.40;;;;;;;-147.86;100.00;49157.96;105592;1259;73920;-47
2023/11/09 07:18:45;;;;;;;4.00;2.60;;;;;;;-147.86;100.00;49127.76;105664;1259;64650;-48
2023/11/09 07:21:13;;;;;;;3.70;3.00;;;;;;;-147.86;100.00;49046.59;105640;1259;72444;-47
2023/11/09 07:23:40;;;;;;;3.30;2.60;;;;;;;-147.86;100.00;48945.41;105587;1259;60589;-47
2023/11/09 07:26:07;;;;;;;2.70;2.20;;;;;;;-147.86;100.00;48874.43;105580;1257;60470;-49
2023/11/09 07:28:34;;;;;;;7.10;2.60;;;;;;;-147.86;100.00;48833.26;105546;1259;73912;-47
2023/11/09 07:31:01;;;;;;;9.10;2.30;;;;;;;-147.86;100.00;48781.89;105602;1259;64663;-48
2023/11/09 07:33:28;;;;;;;4.50;2.10;;;;;;;-147.86;100.00;48726.60;105580;1259;72906;-46
2023/11/09 07:35:57;;;;;;;3.60;2.50;;;;;;;-147.86;100.00;48637.59;105695;1257;62051;-48
2023/11/09 07:38:26;;;;;;;7.40;2.60;;;;;;;-147.86;100.00;48614.84;105583;1257;60403;-49
2023/11/09 07:40:53;;;;;;;3.30;2.40;;;;;;;-147.86;100.00;48582.70;105639;1257;72493;-47
2023/11/09 07:43:21;;;;;;;5.20;2.70;;;;;;;-147.86;100.00;48584.26;105596;1256;65600;-47
2023/11/09 07:45:48;;;;;;;3.00;2.70;;;;;;;-147.86;100.00;48585.04;105653;1257;72734;-47
2023/11/09 07:48:16;;;;;;;4.40;3.50;;;;;;;-147.86;100.00;48549.36;105676;1259;60330;-48
2023/11/09 07:50:43;;;;;;;3.60;3.10;;;;;;;-147.86;100.00;48562.30;105643;1257;60537;-48
2023/11/09 07:53:11;;;;;;;7.40;3.40;;;;;;;-147.86;100.00;48561.91;105622;1257;73879;-46
2023/11/09 07:55:38;;;;;;;3.70;3.10;;;;;;;-147.86;100.00;48585.44;105609;1257;65458;-47
2023/11/09 07:58:05;;;;;;;5.30;3.30;;;;;;;-147.86;100.00;48554.46;105598;1259;72514;-47
2023/11/09 08:00:33;;;;;;;2.70;2.50;;;;;;;-147.86;100.00;48559.56;105626;1259;60325;-46
2023/11/09 08:03:01;;;;;;;3.90;3.00;;;;;;;-147.86;100.00;48570.93;105664;1257;60418;-46
2023/11/09 08:05:29;;;;;;;3.40;3.10;;;;;;;-147.86;100.00;48543.88;105650;1257;72629;-47
2023/11/09 08:07:56;;;;;;;4.50;4.10;;;;;;;-147.86;100.00;48543.09;105627;1259;65359;-50
2023/11/09 08:10:24;;;;;;;7.00;4.60;;;;;;;-147.86;100.00;48559.17;105590;1256;73154;-46
2023/11/09 08:12:52;;;;;;;5.10;4.50;;;;;;;-147.86;100.00;48560.34;105646;1256;62428;-47
2023/11/09 08:15:19;;;;;;;5.70;4.20;;;;;;;-147.86;100.00;48545.84;105630;1257;62086;-50
2023/11/09 08:17:47;;;;;;;8.70;4.50;;;;;;;-147.86;100.00;48561.52;105672;1257;73784;-49
2023/11/09 08:20:14;;;;;;;10.00;5.30;;;;;;;-147.86;100.00;48559.95;105663;1259;66574;-48
2023/11/09 08:22:46;;;;;;;6.90;5.10;;;;;;;-147.86;100.00;48574.46;105645;1259;71063;-46
2023/11/09 08:25:19;;;;;;;9.30;5.60;;;;;;;-147.86;100.00;48572.89;105582;1255;60529;-49
2023/11/09 08:27:47;;;;;;;5.40;4.10;;;;;;;-147.86;100.00;48560.34;105613;1256;60413;-47
2023/11/09 08:30:19;;;;;;;7.50;4.20;;;;;;;-147.86;100.00;48562.30;105673;1260;73855;-46
2023/11/09 08:32:49;;;;;;;9.40;5.40;;;;;;;-147.86;100.00;48553.29;105671;1256;65470;-49
2023/11/09 08:35:17;;;;;;;8.00;6.40;;;;;;;-147.86;100.00;48567.01;105620;1259;72731;-50
2023/11/09 08:37:45;;;;;;;6.70;5.80;;;;;;;-147.86;100.00;48549.76;105596;1259;62270;-49
2023/11/09 08:40:27;;;;;;;6.40;4.50;;;;;;;-147.86;100.00;48540.74;105619;1257;60469;-48
2023/11/09 08:42:54;;;;;;;33.00;14.60;;;;;;;-147.86;100.00;48550.15;105655;1259;73723;-48
2023/11/09 08:45:22;;;;;;;13.30;8.50;;;;;;;-147.86;100.00;48553.68;105646;1259;64727;-48
2023/11/09 08:47:50;;;;;;;5.50;4.70;;;;;;;-147.86;100.00;48531.33;105657;1259;72488;-46
2023/11/09 08:50:18;;;;;;;6.10;4.80;;;;;;;-147.86;100.00;48548.18;105590;1259;61520;-50
2023/11/09 08:52:45;;;;;;;6.60;5.40;;;;;;;-147.86;100.00;48539.16;105703;1256;60972;-49
2023/11/09 08:55:13;;;;;;;8.40;5.80;;;;;;;-147.86;100.00;48549.76;105714;1259;72916;-49
2023/11/09 08:57:40;;;;;;;16.40;6.80;;;;;;;-147.86;100.00;48548.58;105641;1259;65459;-49
2023/11/09 09:00:16;;;;;;;7.90;4.00;;;;;;;-147.86;100.00;48550.93;105612;1257;73606;-46
2023/11/09 09:02:51;;;;;;;6.20;4.20;;;;;;;-147.86;100.00;48507.41;105626;1259;61003;-50
2023/11/09 09:05:20;;;;;;;10.10;4.20;;;;;;;-147.86;100.00;48484.27;105651;1258;60527;-47
2023/11/09 09:07:49;;;;;;;8.30;5.30;;;;;;;-147.86;100.00;48479.18;105613;1257;74093;-48
2023/11/09 09:10:20;;;;;;;8.70;5.20;;;;;;;-147.86;100.00;48462.71;105604;1259;63310;-46
2023/11/09 09:12:49;;;;;;;7.60;5.20;;;;;;;-147.86;100.00;48453.30;105627;1259;70939;-49
2023/11/09 09:15:17;;;;;;;10.60;7.60;;;;;;;-147.86;100.00;48463.88;105618;1259;60454;-48
2023/11/09 09:17:46;;;;;;;15.50;8.60;;;;;;;-147.86;100.00;48474.86;105615;1256;60544;-48
2023/11/09 09:20:20;;;;;;;12.10;6.90;;;;;;;-147.86;100.00;48487.02;105621;1257;73435;-48
2023/11/09 09:22:52;;;;;;;15.20;9.30;;;;;;;-147.86;100.00;48505.84;105611;1257;64250;-50
2023/11/09 09:25:22;;;;;;;10.30;7.50;;;;;;;-147.86;100.00;48516.82;105641;1259;72001;-47
2023/11/09 09:27:53;;;;;;;11.20;8.80;;;;;;;-147.86;100.00;48544.66;105604;1259;62319;-47
2023/11/09 09:30:21;;;;;;;13.90;9.20;;;;;;;-147.86;100.00;48536.03;105620;1259;61177;-52
2023/11/09 09:32:53;;;;;;;13.20;9.10;;;;;;;-147.86;100.00;48542.30;105607;1260;73656;-48
2023/11/09 09:35:20;;;;;;;11.70;10.40;;;;;;;-147.86;100.00;48576.81;105657;1259;65379;-46
2023/11/09 09:37:53;;;;;;;13.90;10.60;;;;;;;-147.86;100.00;48596.41;105698;1256;72768;-50
2023/11/09 09:40:22;;;;;;;17.10;11.10;;;;;;;-147.86;100.00;48615.63;105639;1257;62545;-49
2023/11/09 09:42:56;;;;;;;16.50;11.00;;;;;;;-147.86;100.00;48648.18;105639;1256;60524;-49
2023/11/09 09:45:26;;;;;;;14.80;10.80;;;;;;;-147.86;100.00;48670.92;105685;1257;73570;-47
2023/11/09 09:47:56;;;;;;;14.90;12.00;;;;;;;-147.86;100.00;48706.99;105655;1268;64948;-48
2023/11/09 09:50:24;;;;;;;18.60;11.80;;;;;;;-147.86;100.00;48708.96;105643;1257;72623;-49
2023/11/09 09:52:53;;;;;;;24.40;13.60;;;;;;;-147.86;100.00;48748.55;105669;1259;61890;-47
2023/11/09 09:55:21;;;;;;;24.50;13.50;;;;;;;-147.86;100.00;48756.01;105620;1257;60428;-48
2023/11/09 09:57:48;;;;;;;22.00;14.30;;;;;;;-147.86;100.00;48726.60;105631;1259;73775;-50
2023/11/09 10:00:30;;;;;;;24.80;14.90;;;;;;;-147.86;100.00;48720.33;105654;1261;64650;-47
2023/11/09 10:02:59;;;;;;;27.20;14.40;;;;;;;-147.86;100.00;48704.25;105684;1257;72700;-49
2023/11/09 10:05:27;;;;;;;26.20;15.60;;;;;;;-147.86;100.00;48705.82;105613;1260;61094;-46
2023/11/09 10:08:13;;;;;;;27.60;16.00;;;;;;;-147.86;100.00;48703.86;105692;1257;60504;-48
2023/11/09 10:10:47;;;;;;;27.10;14.60;;;;;;;-147.86;100.00;48717.58;105658;1257;73556;-48
2023/11/09 10:13:18;;;;;;;16.80;11.50;;;;;;;-147.86;100.00;48742.68;105658;1260;63952;-48
2023/11/09 10:15:46;;;;;;;15.10;10.90;;;;;;;-147.86;100.00;48739.54;105657;1259;72969;-51
2023/11/09 10:18:13;;;;;;;15.10;11.80;;;;;;;-147.86;100.00;48761.11;105652;1260;61206;-49
2023/11/09 10:20:40;;;;;;;16.70;12.60;;;;;;;-147.86;100.00;48742.29;105724;1259;60367;-48
2023/11/09 10:23:14;;;;;;;18.80;13.00;;;;;;;-147.86;100.00;48728.96;105625;1259;74125;-48
2023/11/09 10:25:41;;;;;;;20.00;12.60;;;;;;;-147.86;100.00;48721.11;105610;1259;65021;-48
2023/11/09 10:28:08;;;;;;;19.10;11.50;;;;;;;-147.86;100.00;48727.78;105591;1259;72909;-50
2023/11/09 10:30:40;;;;;;;19.80;12.20;;;;;;;-147.86;100.00;48747.38;105381;1266;62617;-48
2023/11/09 10:33:08;;;;;;;21.10;12.90;;;;;;;-147.86;100.00;48757.98;105612;1257;60526;-47
2023/11/09 10:35:37;;;;;;;18.40;12.50;;;;;;;-147.86;100.00;48771.30;105604;1261;74948;-51
2023/11/09 10:38:07;;;;;;;15.20;10.80;;;;;;;-147.86;100.00;48757.19;105614;1262;64682;-50
2023/11/09 10:40:36;;;;;;;16.80;10.90;;;;;;;-147.86;100.00;48741.11;105607;1259;73182;-48
2023/11/09 10:43:05;;;;;;;15.50;10.60;;;;;;;-147.86;100.00;48749.34;105637;1259;60351;-50
2023/11/09 10:45:36;;;;;;;12.80;9.90;;;;;;;-147.86;100.00;48721.89;105644;1257;60412;-48
2023/11/09 10:48:07;;;;;;;12.60;10.50;;;;;;;-147.86;100.00;48693.66;105628;1259;73652;-48
2023/11/09 10:50:44;;;;;;;10.50;9.20;;;;;;;-147.86;100.00;48643.08;105625;1260;65522;-48
2023/11/09 10:53:13;;;;;;;12.80;8.50;;;;;;;-147.86;100.00;48616.41;105581;1260;72669;-46
2023/11/09 10:55:43;;;;;;;11.90;9.10;;;;;;;-147.86;100.00;48623.87;105579;1259;60402;-49
2023/11/09 10:58:12;;;;;;;12.00;8.70;;;;;;;-147.86;100.00;48579.55;105638;1259;60505;-48
2023/11/09 11:00:42;;;;;;;13.20;8.20;;;;;;;-147.86;100.00;48544.65;105641;1256;72447;-46
2023/11/09 11:03:25;;;;;;;9.30;8.30;;;;;;;-147.86;100.00;48541.13;105641;1259;65916;-52
2023/11/09 11:05:59;;;;;;;11.50;8.20;;;;;;;-147.86;100.00;48550.15;105619;1259;72047;-47
2023/11/09 11:08:26;;;;;;;11.30;8.00;;;;;;;-147.86;100.00;48523.09;105598;1258;62336;-48
2023/11/09 11:10:54;;;;;;;13.90;7.60;;;;;;;-147.86;100.00;48523.88;105660;1262;60400;-50
2023/11/09 11:13:22;;;;;;;9.20;6.50;;;;;;;-147.86;100.00;48521.13;105597;1258;73851;-46
2023/11/09 11:16:07;;;;;;;10.20;6.50;;;;;;;-147.86;100.00;48495.25;105506;1263;66335;-46
2023/11/09 11:18:46;;;;;;;7.80;6.60;;;;;;;-147.86;100.00;48460.75;105614;1260;72740;-50